sensor_id;sensor_type;location;lat;lon;timestamp;noise_LAeq;noise_LA_min;noise_LA_max;noise_LA01;noise_LA95
58303;Laerm;44109;52.398;7.024;2024-01-30T00:00:01;43.33;34.00;58.08;;
58303;Laerm;44109;52.398;7.024;2024-01-30T00:02:32;43.41;34.12;60.12;;
58303;Laerm;44109;52.398;7.024;2024-01-30T00:04:59;43.90;34.27;57.59;;
58303;Laerm;44109;52.398;7.024;2024-01-30T00:07:27;46.09;34.64;57.60;;
58303;Laerm;44109;52.398;7.024;2024-01-30T00:09:55;43.12;33.86;57.24;;
58303;Laerm;44109;52.398;7.024;2024-01-30T00:12:22;43.17;33.78;57.95;;
58303;Laerm;44109;52.398;7.024;2024-01-30T00:14:50;45.24;34.45;58.16;;
58303;Laerm;44109;52.398;7.024;2024-01-30T00:17:17;43.44;34.40;57.88;;
58303;Laerm;44109;52.398;7.024;2024-01-30T00:19:48;43.22;34.36;58.10;;
58303;Laerm;44109;52.398;7.024;2024-01-30T00:22:15;43.29;34.14;57.76;;
58303;Laerm;44109;52.398;7.024;2024-01-30T00:24:43;43.67;34.41;57.82;;
58303;Laerm;44109;52.398;7.024;2024-01-30T00:27:10;43.37;33.98;57.24;;
58303;Laerm;44109;52.398;7.024;2024-01-30T00:29:38;43.44;34.57;57.38;;
58303;Laerm;44109;52.398;7.024;2024-01-30T00:32:06;43.84;33.93;61.87;;
58303;Laerm;44109;52.398;7.024;2024-01-30T00:34:34;43.96;34.44;57.63;;
58303;Laerm;44109;52.398;7.024;2024-01-30T00:37:03;43.63;33.97;57.91;;
58303;Laerm;44109;52.398;7.024;2024-01-30T00:39:31;44.65;34.80;57.96;;
58303;Laerm;44109;52.398;7.024;2024-01-30T00:41:58;43.76;33.93;57.71;;
58303;Laerm;44109;52.398;7.024;2024-01-30T00:44:26;44.11;33.57;58.05;;
58303;Laerm;44109;52.398;7.024;2024-01-30T00:46:53;44.00;33.50;57.88;;
58303;Laerm;44109;52.398;7.024;2024-01-30T00:49:21;44.13;34.26;57.79;;
58303;Laerm;44109;52.398;7.024;2024-01-30T00:51:49;44.04;33.45;57.77;;
58303;Laerm;44109;52.398;7.024;2024-01-30T00:54:17;44.02;34.13;57.20;;
58303;Laerm;44109;52.398;7.024;2024-01-30T00:56:45;44.11;33.87;57.77;;
58303;Laerm;44109;52.398;7.024;2024-01-30T00:59:13;44.13;33.95;58.04;;
58303;Laerm;44109;52.398;7.024;2024-01-30T01:01:41;47.31;33.91;61.57;;
58303;Laerm;44109;52.398;7.024;2024-01-30T01:04:08;44.10;33.72;57.63;;
58303;Laerm;44109;52.398;7.024;2024-01-30T01:06:36;44.07;33.96;57.96;;
58303;Laerm;44109;52.398;7.024;2024-01-30T01:09:03;44.06;33.83;58.02;;
58303;Laerm;44109;52.398;7.024;2024-01-30T01:11:32;44.53;33.90;57.75;;
58303;Laerm;44109;52.398;7.024;2024-01-30T01:14:00;43.97;33.53;57.81;;
58303;Laerm;44109;52.398;7.024;2024-01-30T01:16:28;44.02;34.20;58.00;;
58303;Laerm;44109;52.398;7.024;2024-01-30T01:18:55;43.99;33.87;57.91;;
58303;Laerm;44109;52.398;7.024;2024-01-30T01:21:23;44.41;34.33;57.68;;
58303;Laerm;44109;52.398;7.024;2024-01-30T01:23:50;43.98;34.08;57.98;;
58303;Laerm;44109;52.398;7.024;2024-01-30T01:26:18;45.59;34.09;57.57;;
58303;Laerm;44109;52.398;7.024;2024-01-30T01:28:47;44.79;34.11;57.75;;
58303;Laerm;44109;52.398;7.024;2024-01-30T01:31:14;44.25;34.19;57.89;;
58303;Laerm;44109;52.398;7.024;2024-01-30T01:33:43;43.94;33.89;57.36;;
58303;Laerm;44109;52.398;7.024;2024-01-30T01:36:11;43.99;33.80;57.86;;
58303;Laerm;44109;52.398;7.024;2024-01-30T01:38:40;44.05;34.39;57.86;;
58303;Laerm;44109;52.398;7.024;2024-01-30T01:41:08;43.99;34.33;57.62;;
58303;Laerm;44109;52.398;7.024;2024-01-30T01:43:36;44.01;34.37;57.76;;
58303;Laerm;44109;52.398;7.024;2024-01-30T01:46:06;44.04;34.22;57.45;;
58303;Laerm;44109;52.398;7.024;2024-01-30T01:48:34;44.15;33.98;57.79;;
58303;Laerm;44109;52.398;7.024;2024-01-30T01:51:02;45.32;34.77;57.39;;
58303;Laerm;44109;52.398;7.024;2024-01-30T01:53:31;44.40;34.08;57.96;;
58303;Laerm;44109;52.398;7.024;2024-01-30T01:56:00;44.01;34.13;57.94;;
58303;Laerm;44109;52.398;7.024;2024-01-30T01:58:29;43.90;33.95;57.30;;
58303;Laerm;44109;52.398;7.024;2024-01-30T02:00:58;44.07;33.84;59.99;;
58303;Laerm;44109;52.398;7.024;2024-01-30T02:03:28;44.02;33.97;57.28;;
58303;Laerm;44109;52.398;7.024;2024-01-30T02:05:56;44.15;34.18;57.79;;
58303;Laerm;44109;52.398;7.024;2024-01-30T02:08:24;44.43;33.59;57.90;;
58303;Laerm;44109;52.398;7.024;2024-01-30T02:10:52;43.83;34.06;57.67;;
58303;Laerm;44109;52.398;7.024;2024-01-30T02:13:21;43.73;34.13;57.54;;
58303;Laerm;44109;52.398;7.024;2024-01-30T02:15:50;43.70;34.30;57.83;;
58303;Laerm;44109;52.398;7.024;2024-01-30T02:18:20;43.66;34.38;57.88;;
58303;Laerm;44109;52.398;7.024;2024-01-30T02:20:51;43.60;34.12;57.96;;
58303;Laerm;44109;52.398;7.024;2024-01-30T02:23:24;43.54;33.95;57.87;;
58303;Laerm;44109;52.398;7.024;2024-01-30T02:25:52;43.94;34.70;62.28;;
58303;Laerm;44109;52.398;7.024;2024-01-30T02:28:20;43.70;34.16;58.00;;
58303;Laerm;44109;52.398;7.024;2024-01-30T02:30:47;43.83;34.56;59.02;;
58303;Laerm;44109;52.398;7.024;2024-01-30T02:33:15;45.35;34.55;57.70;;
58303;Laerm;44109;52.398;7.024;2024-01-30T02:35:43;44.19;34.45;57.80;;
58303;Laerm;44109;52.398;7.024;2024-01-30T02:38:11;43.65;34.57;57.68;;
58303;Laerm;44109;52.398;7.024;2024-01-30T02:40:40;43.80;34.54;57.93;;
58303;Laerm;44109;52.398;7.024;2024-01-30T02:43:07;45.98;35.20;58.08;;
58303;Laerm;44109;52.398;7.024;2024-01-30T02:45:35;43.62;34.62;57.45;;
58303;Laerm;44109;52.398;7.024;2024-01-30T02:48:03;44.21;34.29;57.14;;
58303;Laerm;44109;52.398;7.024;2024-01-30T02:50:31;43.60;34.20;57.78;;
58303;Laerm;44109;52.398;7.024;2024-01-30T02:52:59;44.15;33.88;57.03;;
58303;Laerm;44109;52.398;7.024;2024-01-30T02:55:26;43.95;34.21;57.88;;
58303;Laerm;44109;52.398;7.024;2024-01-30T02:57:55;43.35;33.93;57.11;;
58303;Laerm;44109;52.398;7.024;2024-01-30T03:00:24;44.51;34.02;63.97;;
58303;Laerm;44109;52.398;7.024;2024-01-30T03:02:51;43.64;34.01;56.96;;
58303;Laerm;44109;52.398;7.024;2024-01-30T03:05:19;43.32;33.78;57.09;;
58303;Laerm;44109;52.398;7.024;2024-01-30T03:07:47;43.72;34.13;57.17;;
58303;Laerm;44109;52.398;7.024;2024-01-30T03:10:14;43.36;33.29;57.23;;
58303;Laerm;44109;52.398;7.024;2024-01-30T03:12:42;43.59;33.71;57.91;;
58303;Laerm;44109;52.398;7.024;2024-01-30T03:15:11;43.12;33.66;57.24;;
58303;Laerm;44109;52.398;7.024;2024-01-30T03:17:39;43.55;34.22;57.88;;
58303;Laerm;44109;52.398;7.024;2024-01-30T03:20:07;43.48;33.95;57.63;;
58303;Laerm;44109;52.398;7.024;2024-01-30T03:22:36;43.07;33.32;58.03;;
58303;Laerm;44109;52.398;7.024;2024-01-30T03:25:04;43.06;33.78;57.61;;
58303;Laerm;44109;52.398;7.024;2024-01-30T03:27:32;44.86;33.96;58.84;;
58303;Laerm;44109;52.398;7.024;2024-01-30T03:30:00;43.49;34.14;57.44;;
58303;Laerm;44109;52.398;7.024;2024-01-30T03:32:29;43.19;34.12;62.04;;
58303;Laerm;44109;52.398;7.024;2024-01-30T03:34:57;44.24;34.30;57.93;;
58303;Laerm;44109;52.398;7.024;2024-01-30T03:37:25;44.81;34.29;57.65;;
58303;Laerm;44109;52.398;7.024;2024-01-30T03:39:53;44.28;34.58;58.13;;
58303;Laerm;44109;52.398;7.024;2024-01-30T03:42:20;44.24;33.77;57.96;;
58303;Laerm;44109;52.398;7.024;2024-01-30T03:44:48;43.53;34.24;57.28;;
58303;Laerm;44109;52.398;7.024;2024-01-30T03:47:18;44.03;34.44;57.83;;
58303;Laerm;44109;52.398;7.024;2024-01-30T03:49:47;46.03;35.75;58.18;;
58303;Laerm;44109;52.398;7.024;2024-01-30T03:52:15;44.66;35.25;57.97;;
58303;Laerm;44109;52.398;7.024;2024-01-30T03:54:42;43.93;34.57;58.03;;
58303;Laerm;44109;52.398;7.024;2024-01-30T03:57:10;43.98;34.39;57.98;;
58303;Laerm;44109;52.398;7.024;2024-01-30T03:59:38;44.34;34.55;57.07;;
58303;Laerm;44109;52.398;7.024;2024-01-30T04:02:10;45.07;35.78;62.06;;
58303;Laerm;44109;52.398;7.024;2024-01-30T04:04:37;44.63;35.77;58.08;;
58303;Laerm;44109;52.398;7.024;2024-01-30T04:07:06;45.57;34.43;57.03;;
58303;Laerm;44109;52.398;7.024;2024-01-30T04:09:34;44.73;33.85;58.21;;
58303;Laerm;44109;52.398;7.024;2024-01-30T04:12:02;44.41;35.46;57.64;;
58303;Laerm;44109;52.398;7.024;2024-01-30T04:14:30;45.39;34.87;57.02;;
58303;Laerm;44109;52.398;7.024;2024-01-30T04:16:57;45.37;34.57;59.13;;
58303;Laerm;44109;52.398;7.024;2024-01-30T04:19:25;44.65;34.35;58.01;;
58303;Laerm;44109;52.398;7.024;2024-01-30T04:21:52;43.49;35.00;57.86;;
58303;Laerm;44109;52.398;7.024;2024-01-30T04:24:21;43.66;34.94;57.16;;
58303;Laerm;44109;52.398;7.024;2024-01-30T04:26:49;43.95;34.23;57.49;;
58303;Laerm;44109;52.398;7.024;2024-01-30T04:29:17;44.55;34.33;57.46;;
58303;Laerm;44109;52.398;7.024;2024-01-30T04:31:45;46.26;38.38;58.02;;
58303;Laerm;44109;52.398;7.024;2024-01-30T04:34:13;44.84;35.21;57.17;;
58303;Laerm;44109;52.398;7.024;2024-01-30T04:36:44;44.86;35.29;57.69;;
58303;Laerm;44109;52.398;7.024;2024-01-30T04:39:12;44.10;34.45;57.67;;
58303;Laerm;44109;52.398;7.024;2024-01-30T04:41:41;44.46;35.04;58.01;;
58303;Laerm;44109;52.398;7.024;2024-01-30T04:44:09;45.58;34.41;57.56;;
58303;Laerm;44109;52.398;7.024;2024-01-30T04:46:36;44.09;35.28;57.97;;
58303;Laerm;44109;52.398;7.024;2024-01-30T04:49:04;43.34;34.28;56.98;;
58303;Laerm;44109;52.398;7.024;2024-01-30T04:51:33;43.88;34.91;57.24;;
58303;Laerm;44109;52.398;7.024;2024-01-30T04:54:01;45.65;36.86;57.29;;
58303;Laerm;44109;52.398;7.024;2024-01-30T04:56:29;44.56;34.77;57.71;;
58303;Laerm;44109;52.398;7.024;2024-01-30T04:58:59;44.15;34.82;57.37;;
58303;Laerm;44109;52.398;7.024;2024-01-30T05:01:26;45.17;35.16;59.44;;
58303;Laerm;44109;52.398;7.024;2024-01-30T05:03:54;44.77;35.68;57.74;;
58303;Laerm;44109;52.398;7.024;2024-01-30T05:06:25;46.04;35.40;58.35;;
58303;Laerm;44109;52.398;7.024;2024-01-30T05:08:53;46.26;36.49;57.72;;
58303;Laerm;44109;52.398;7.024;2024-01-30T05:11:20;46.36;36.58;58.11;;
58303;Laerm;44109;52.398;7.024;2024-01-30T05:13:48;47.43;37.67;57.71;;
58303;Laerm;44109;52.398;7.024;2024-01-30T05:16:17;44.87;36.58;58.06;;
58303;Laerm;44109;52.398;7.024;2024-01-30T05:18:45;46.25;36.49;57.92;;
58303;Laerm;44109;52.398;7.024;2024-01-30T05:21:12;45.44;38.18;58.06;;
58303;Laerm;44109;52.398;7.024;2024-01-30T05:23:40;44.99;35.89;58.13;;
58303;Laerm;44109;52.398;7.024;2024-01-30T05:26:08;48.44;40.26;59.71;;
58303;Laerm;44109;52.398;7.024;2024-01-30T05:28:36;47.83;38.29;58.34;;
58303;Laerm;44109;52.398;7.024;2024-01-30T05:31:04;45.53;37.46;58.11;;
58303;Laerm;44109;52.398;7.024;2024-01-30T05:33:33;47.94;37.02;58.44;;
58303;Laerm;44109;52.398;7.024;2024-01-30T05:36:00;46.44;38.34;58.17;;
58303;Laerm;44109;52.398;7.024;2024-01-30T05:38:29;46.65;37.85;58.09;;
58303;Laerm;44109;52.398;7.024;2024-01-30T05:40:56;46.35;38.62;57.86;;
58303;Laerm;44109;52.398;7.024;2024-01-30T05:43:25;48.57;39.98;57.87;;
58303;Laerm;44109;52.398;7.024;2024-01-30T05:45:52;47.15;39.38;57.45;;
58303;Laerm;44109;52.398;7.024;2024-01-30T05:48:20;46.28;37.34;57.39;;
58303;Laerm;44109;52.398;7.024;2024-01-30T05:50:49;46.63;36.82;58.14;;
58303;Laerm;44109;52.398;7.024;2024-01-30T05:53:17;47.55;39.44;58.23;;
58303;Laerm;44109;52.398;7.024;2024-01-30T05:55:44;46.86;36.71;58.43;;
58303;Laerm;44109;52.398;7.024;2024-01-30T05:58:14;47.39;40.28;58.62;;
58303;Laerm;44109;52.398;7.024;2024-01-30T06:00:42;47.31;37.53;63.28;;
58303;Laerm;44109;52.398;7.024;2024-01-30T06:03:09;48.32;38.92;58.06;;
58303;Laerm;44109;52.398;7.024;2024-01-30T06:05:37;47.42;39.60;58.39;;
58303;Laerm;44109;52.398;7.024;2024-01-30T06:08:06;49.59;41.09;58.70;;
58303;Laerm;44109;52.398;7.024;2024-01-30T06:10:34;47.54;37.94;58.38;;
58303;Laerm;44109;52.398;7.024;2024-01-30T06:13:02;47.81;38.31;58.04;;
58303;Laerm;44109;52.398;7.024;2024-01-30T06:15:29;48.23;41.37;57.74;;
58303;Laerm;44109;52.398;7.024;2024-01-30T06:17:59;49.35;42.26;58.07;;
58303;Laerm;44109;52.398;7.024;2024-01-30T06:20:26;48.06;39.86;58.59;;
58303;Laerm;44109;52.398;7.024;2024-01-30T06:22:54;49.29;41.02;58.23;;
58303;Laerm;44109;52.398;7.024;2024-01-30T06:25:23;48.57;41.71;58.47;;
58303;Laerm;44109;52.398;7.024;2024-01-30T06:27:51;49.26;42.75;58.30;;
58303;Laerm;44109;52.398;7.024;2024-01-30T06:30:19;50.52;44.42;59.27;;
58303;Laerm;44109;52.398;7.024;2024-01-30T06:32:46;49.84;41.34;67.17;;
58303;Laerm;44109;52.398;7.024;2024-01-30T06:35:14;49.98;42.94;59.12;;
58303;Laerm;44109;52.398;7.024;2024-01-30T06:37:43;49.52;40.41;58.45;;
58303;Laerm;44109;52.398;7.024;2024-01-30T06:40:12;51.60;40.90;67.32;;
58303;Laerm;44109;52.398;7.024;2024-01-30T06:42:41;50.10;42.70;58.17;;
58303;Laerm;44109;52.398;7.024;2024-01-30T06:45:09;51.67;44.82;59.19;;
58303;Laerm;44109;52.398;7.024;2024-01-30T06:47:37;50.33;43.53;63.47;;
58303;Laerm;44109;52.398;7.024;2024-01-30T06:50:06;50.35;44.30;59.31;;
58303;Laerm;44109;52.398;7.024;2024-01-30T06:52:34;50.16;43.97;60.81;;
58303;Laerm;44109;52.398;7.024;2024-01-30T06:55:01;50.43;42.30;58.11;;
58303;Laerm;44109;52.398;7.024;2024-01-30T06:57:29;52.16;47.48;58.65;;
58303;Laerm;44109;52.398;7.024;2024-01-30T06:59:58;51.83;46.49;62.61;;
58303;Laerm;44109;52.398;7.024;2024-01-30T07:02:26;51.73;45.52;61.59;;
58303;Laerm;44109;52.398;7.024;2024-01-30T07:04:53;51.13;44.47;62.87;;
58303;Laerm;44109;52.398;7.024;2024-01-30T07:07:21;51.82;46.18;61.83;;
58303;Laerm;44109;52.398;7.024;2024-01-30T07:09:49;53.52;46.01;63.29;;
58303;Laerm;44109;52.398;7.024;2024-01-30T07:12:22;52.62;46.57;61.51;;
58303;Laerm;44109;52.398;7.024;2024-01-30T07:14:52;52.14;43.25;61.97;;
58303;Laerm;44109;52.398;7.024;2024-01-30T07:17:21;50.67;43.06;72.13;;
58303;Laerm;44109;52.398;7.024;2024-01-30T07:19:48;53.84;43.19;72.10;;
58303;Laerm;44109;52.398;7.024;2024-01-30T07:22:16;53.48;43.02;70.39;;
58303;Laerm;44109;52.398;7.024;2024-01-30T07:24:43;51.59;43.46;68.92;;
58303;Laerm;44109;52.398;7.024;2024-01-30T07:27:14;50.58;41.38;61.99;;
58303;Laerm;44109;52.398;7.024;2024-01-30T07:29:43;49.46;41.07;64.24;;
58303;Laerm;44109;52.398;7.024;2024-01-30T07:32:11;52.30;42.93;64.80;;
58303;Laerm;44109;52.398;7.024;2024-01-30T07:34:40;53.20;42.05;67.85;;
58303;Laerm;44109;52.398;7.024;2024-01-30T07:37:07;51.17;43.11;70.69;;
58303;Laerm;44109;52.398;7.024;2024-01-30T07:39:36;52.82;42.76;72.24;;
58303;Laerm;44109;52.398;7.024;2024-01-30T07:42:04;50.37;42.14;63.29;;
58303;Laerm;44109;52.398;7.024;2024-01-30T07:44:31;51.11;45.14;67.40;;
58303;Laerm;44109;52.398;7.024;2024-01-30T07:46:59;50.65;45.40;68.93;;
58303;Laerm;44109;52.398;7.024;2024-01-30T07:49:27;51.13;45.49;66.22;;
58303;Laerm;44109;52.398;7.024;2024-01-30T07:51:56;50.58;45.23;58.50;;
58303;Laerm;44109;52.398;7.024;2024-01-30T07:54:23;51.94;45.92;65.78;;
58303;Laerm;44109;52.398;7.024;2024-01-30T07:56:51;50.96;41.38;67.96;;
58303;Laerm;44109;52.398;7.024;2024-01-30T07:59:18;50.17;39.23;66.91;;
58303;Laerm;44109;52.398;7.024;2024-01-30T08:01:48;50.39;38.43;68.14;;
58303;Laerm;44109;52.398;7.024;2024-01-30T08:04:30;46.81;39.32;57.79;;
58303;Laerm;44109;52.398;7.024;2024-01-30T08:06:59;48.78;40.53;61.39;;
58303;Laerm;44109;52.398;7.024;2024-01-30T08:09:26;52.28;40.59;70.78;;
58303;Laerm;44109;52.398;7.024;2024-01-30T08:11:54;48.53;39.38;60.63;;
58303;Laerm;44109;52.398;7.024;2024-01-30T08:14:22;48.46;39.59;66.01;;
58303;Laerm;44109;52.398;7.024;2024-01-30T08:16:49;50.92;45.08;59.45;;
58303;Laerm;44109;52.398;7.024;2024-01-30T08:19:17;50.49;41.77;62.42;;
58303;Laerm;44109;52.398;7.024;2024-01-30T08:21:44;52.25;39.29;69.98;;
58303;Laerm;44109;52.398;7.024;2024-01-30T08:24:14;54.53;40.28;68.88;;
58303;Laerm;44109;52.398;7.024;2024-01-30T08:26:41;53.51;39.17;70.95;;
58303;Laerm;44109;52.398;7.024;2024-01-30T08:29:09;49.15;38.84;62.87;;
58303;Laerm;44109;52.398;7.024;2024-01-30T08:31:37;49.98;40.14;66.67;;
58303;Laerm;44109;52.398;7.024;2024-01-30T08:34:04;52.74;38.50;79.29;;
58303;Laerm;44109;52.398;7.024;2024-01-30T08:36:33;53.44;40.30;72.19;;
58303;Laerm;44109;52.398;7.024;2024-01-30T08:39:01;51.17;39.78;69.45;;
58303;Laerm;44109;52.398;7.024;2024-01-30T08:41:30;50.40;39.07;67.33;;
58303;Laerm;44109;52.398;7.024;2024-01-30T08:43:58;48.92;39.44;63.70;;
58303;Laerm;44109;52.398;7.024;2024-01-30T08:46:25;49.03;38.34;65.48;;
58303;Laerm;44109;52.398;7.024;2024-01-30T08:48:53;49.88;40.40;63.66;;
58303;Laerm;44109;52.398;7.024;2024-01-30T08:51:21;48.41;38.56;59.08;;
58303;Laerm;44109;52.398;7.024;2024-01-30T08:53:48;50.70;40.78;66.85;;
58303;Laerm;44109;52.398;7.024;2024-01-30T08:56:16;47.86;39.40;59.44;;
58303;Laerm;44109;52.398;7.024;2024-01-30T08:58:45;51.05;42.68;60.01;;
58303;Laerm;44109;52.398;7.024;2024-01-30T09:01:12;51.09;43.17;64.48;;
58303;Laerm;44109;52.398;7.024;2024-01-30T09:03:41;49.64;42.86;66.18;;
58303;Laerm;44109;52.398;7.024;2024-01-30T09:06:10;49.63;42.99;57.50;;
58303;Laerm;44109;52.398;7.024;2024-01-30T09:08:38;52.03;42.93;71.58;;
58303;Laerm;44109;52.398;7.024;2024-01-30T09:11:09;50.78;41.21;60.39;;
58303;Laerm;44109;52.398;7.024;2024-01-30T09:13:37;50.40;43.04;65.77;;
58303;Laerm;44109;52.398;7.024;2024-01-30T09:16:07;52.23;45.47;69.39;;
58303;Laerm;44109;52.398;7.024;2024-01-30T09:18:35;52.61;41.56;76.96;;
58303;Laerm;44109;52.398;7.024;2024-01-30T09:21:02;48.90;38.56;63.11;;
58303;Laerm;44109;52.398;7.024;2024-01-30T09:23:30;52.30;42.44;64.35;;
58303;Laerm;44109;52.398;7.024;2024-01-30T09:25:58;51.15;44.31;68.42;;
58303;Laerm;44109;52.398;7.024;2024-01-30T09:28:25;50.51;42.53;63.29;;
58303;Laerm;44109;52.398;7.024;2024-01-30T09:30:53;50.85;43.85;63.69;;
58303;Laerm;44109;52.398;7.024;2024-01-30T09:33:22;50.63;42.59;61.17;;
58303;Laerm;44109;52.398;7.024;2024-01-30T09:35:49;50.22;41.40;69.35;;
58303;Laerm;44109;52.398;7.024;2024-01-30T09:38:17;50.96;42.52;66.00;;
58303;Laerm;44109;52.398;7.024;2024-01-30T09:40:51;50.21;40.41;62.53;;
58303;Laerm;44109;52.398;7.024;2024-01-30T09:43:23;49.91;42.40;61.96;;
58303;Laerm;44109;52.398;7.024;2024-01-30T09:45:53;51.56;42.99;65.19;;
58303;Laerm;44109;52.398;7.024;2024-01-30T09:48:23;50.62;43.48;65.87;;
58303;Laerm;44109;52.398;7.024;2024-01-30T09:50:52;52.77;42.89;72.91;;
58303;Laerm;44109;52.398;7.024;2024-01-30T09:53:22;51.22;43.43;66.80;;
58303;Laerm;44109;52.398;7.024;2024-01-30T09:55:50;50.29;41.49;62.05;;
58303;Laerm;44109;52.398;7.024;2024-01-30T09:58:18;50.63;42.84;65.18;;
58303;Laerm;44109;52.398;7.024;2024-01-30T10:00:46;52.16;40.88;71.95;;
58303;Laerm;44109;52.398;7.024;2024-01-30T10:03:13;52.04;38.91;72.62;;
58303;Laerm;44109;52.398;7.024;2024-01-30T10:05:51;49.27;41.21;64.38;;
58303;Laerm;44109;52.398;7.024;2024-01-30T10:08:19;50.99;38.70;71.01;;
58303;Laerm;44109;52.398;7.024;2024-01-30T10:10:47;49.99;39.41;64.07;;
58303;Laerm;44109;52.398;7.024;2024-01-30T10:13:16;50.23;39.76;70.59;;
58303;Laerm;44109;52.398;7.024;2024-01-30T10:15:44;50.92;40.84;70.10;;
58303;Laerm;44109;52.398;7.024;2024-01-30T10:18:12;50.40;40.48;63.74;;
58303;Laerm;44109;52.398;7.024;2024-01-30T10:20:40;51.34;39.45;71.10;;
58303;Laerm;44109;52.398;7.024;2024-01-30T10:23:09;56.21;41.54;72.63;;
58303;Laerm;44109;52.398;7.024;2024-01-30T10:25:37;52.91;38.71;70.19;;
58303;Laerm;44109;52.398;7.024;2024-01-30T10:28:05;50.80;40.90;69.02;;
58303;Laerm;44109;52.398;7.024;2024-01-30T10:30:33;52.49;39.51;70.74;;
58303;Laerm;44109;52.398;7.024;2024-01-30T10:33:01;56.52;40.45;73.52;;
58303;Laerm;44109;52.398;7.024;2024-01-30T10:35:29;53.72;44.73;72.79;;
58303;Laerm;44109;52.398;7.024;2024-01-30T10:37:57;53.66;43.54;71.15;;
58303;Laerm;44109;52.398;7.024;2024-01-30T10:40:28;50.92;43.63;60.91;;
58303;Laerm;44109;52.398;7.024;2024-01-30T10:42:56;51.96;43.01;69.90;;
58303;Laerm;44109;52.398;7.024;2024-01-30T10:45:27;53.11;45.68;71.30;;
58303;Laerm;44109;52.398;7.024;2024-01-30T10:47:58;54.22;45.39;70.94;;
58303;Laerm;44109;52.398;7.024;2024-01-30T10:50:27;52.30;44.87;67.90;;
58303;Laerm;44109;52.398;7.024;2024-01-30T10:52:58;55.60;44.88;72.02;;
58303;Laerm;44109;52.398;7.024;2024-01-30T10:55:29;51.61;44.78;64.90;;
58303;Laerm;44109;52.398;7.024;2024-01-30T10:57:57;52.03;44.83;70.77;;
58303;Laerm;44109;52.398;7.024;2024-01-30T11:00:26;53.13;44.16;71.39;;
58303;Laerm;44109;52.398;7.024;2024-01-30T11:02:55;51.23;43.32;59.75;;
58303;Laerm;44109;52.398;7.024;2024-01-30T11:05:25;51.34;43.88;60.22;;
58303;Laerm;44109;52.398;7.024;2024-01-30T11:07:55;51.61;44.43;59.73;;
58303;Laerm;44109;52.398;7.024;2024-01-30T11:10:25;51.36;44.52;59.83;;
58303;Laerm;44109;52.398;7.024;2024-01-30T11:12:54;52.76;41.26;69.30;;
58303;Laerm;44109;52.398;7.024;2024-01-30T11:15:24;53.67;41.31;72.05;;
58303;Laerm;44109;52.398;7.024;2024-01-30T11:17:52;53.92;41.05;71.48;;
58303;Laerm;44109;52.398;7.024;2024-01-30T11:20:22;50.64;40.06;60.11;;
58303;Laerm;44109;52.398;7.024;2024-01-30T11:22:54;52.49;40.71;61.59;;
58303;Laerm;44109;52.398;7.024;2024-01-30T11:25:24;54.50;39.65;76.83;;
58303;Laerm;44109;52.398;7.024;2024-01-30T11:27:55;51.73;42.71;61.39;;
58303;Laerm;44109;52.398;7.024;2024-01-30T11:30:24;52.97;39.64;72.16;;
58303;Laerm;44109;52.398;7.024;2024-01-30T11:33:03;51.18;41.18;60.13;;
58303;Laerm;44109;52.398;7.024;2024-01-30T11:35:34;51.76;42.83;59.23;;
58303;Laerm;44109;52.398;7.024;2024-01-30T11:38:03;51.79;41.29;66.10;;
58303;Laerm;44109;52.398;7.024;2024-01-30T11:40:33;52.23;43.01;65.20;;
58303;Laerm;44109;52.398;7.024;2024-01-30T11:43:04;51.81;42.81;65.98;;
58303;Laerm;44109;52.398;7.024;2024-01-30T11:45:33;51.18;40.92;65.66;;
58303;Laerm;44109;52.398;7.024;2024-01-30T11:48:02;50.59;40.04;61.45;;
58303;Laerm;44109;52.398;7.024;2024-01-30T11:50:30;54.13;42.04;71.80;;
58303;Laerm;44109;52.398;7.024;2024-01-30T11:52:58;53.60;43.32;74.54;;
58303;Laerm;44109;52.398;7.024;2024-01-30T11:55:29;51.32;41.19;67.94;;
58303;Laerm;44109;52.398;7.024;2024-01-30T11:57:57;50.93;39.93;64.33;;
58303;Laerm;44109;52.398;7.024;2024-01-30T12:00:27;56.58;44.17;79.07;;
58303;Laerm;44109;52.398;7.024;2024-01-30T12:02:56;58.51;52.12;72.76;;
58303;Laerm;44109;52.398;7.024;2024-01-30T12:05:24;58.57;50.49;81.09;;
58303;Laerm;44109;52.398;7.024;2024-01-30T12:07:52;57.79;49.94;74.16;;
58303;Laerm;44109;52.398;7.024;2024-01-30T12:10:21;54.29;42.85;74.36;;
58303;Laerm;44109;52.398;7.024;2024-01-30T12:12:50;51.64;42.16;67.03;;
58303;Laerm;44109;52.398;7.024;2024-01-30T12:15:22;51.27;41.74;64.54;;
58303;Laerm;44109;52.398;7.024;2024-01-30T12:17:51;56.92;45.76;67.73;;
58303;Laerm;44109;52.398;7.024;2024-01-30T12:20:20;58.96;49.98;70.55;;
58303;Laerm;44109;52.398;7.024;2024-01-30T12:22:49;57.29;48.60;66.17;;
58303;Laerm;44109;52.398;7.024;2024-01-30T12:25:20;58.50;50.35;77.64;;
58303;Laerm;44109;52.398;7.024;2024-01-30T12:27:50;60.40;50.07;71.34;;
58303;Laerm;44109;52.398;7.024;2024-01-30T12:30:19;53.68;45.27;69.38;;
58303;Laerm;44109;52.398;7.024;2024-01-30T12:32:50;52.10;44.64;59.22;;
58303;Laerm;44109;52.398;7.024;2024-01-30T12:35:20;53.97;43.44;72.94;;
58303;Laerm;44109;52.398;7.024;2024-01-30T12:37:48;51.27;43.19;60.37;;
58303;Laerm;44109;52.398;7.024;2024-01-30T12:40:17;50.81;42.04;59.31;;
58303;Laerm;44109;52.398;7.024;2024-01-30T12:42:47;51.44;43.09;59.18;;
58303;Laerm;44109;52.398;7.024;2024-01-30T12:45:16;51.64;42.67;67.81;;
58303;Laerm;44109;52.398;7.024;2024-01-30T12:47:46;50.92;41.48;60.50;;
58303;Laerm;44109;52.398;7.024;2024-01-30T12:50:15;51.36;41.03;74.81;;
58303;Laerm;44109;52.398;7.024;2024-01-30T12:52:43;51.71;43.38;59.84;;
58303;Laerm;44109;52.398;7.024;2024-01-30T12:55:11;51.81;42.64;63.81;;
58303;Laerm;44109;52.398;7.024;2024-01-30T12:57:39;51.42;42.89;63.02;;
58303;Laerm;44109;52.398;7.024;2024-01-30T13:00:08;50.92;40.35;61.09;;
58303;Laerm;44109;52.398;7.024;2024-01-30T13:02:35;52.25;40.21;65.21;;
58303;Laerm;44109;52.398;7.024;2024-01-30T13:05:04;51.58;39.45;71.79;;
58303;Laerm;44109;52.398;7.024;2024-01-30T13:07:33;50.07;40.79;63.14;;
58303;Laerm;44109;52.398;7.024;2024-01-30T13:10:03;51.04;41.05;60.11;;
58303;Laerm;44109;52.398;7.024;2024-01-30T13:12:31;51.85;42.79;64.36;;
58303;Laerm;44109;52.398;7.024;2024-01-30T13:15:00;52.53;42.11;74.52;;
58303;Laerm;44109;52.398;7.024;2024-01-30T13:17:28;52.02;41.71;71.01;;
58303;Laerm;44109;52.398;7.024;2024-01-30T13:19:55;52.71;42.23;72.19;;
58303;Laerm;44109;52.398;7.024;2024-01-30T13:22:23;56.03;41.28;74.51;;
58303;Laerm;44109;52.398;7.024;2024-01-30T13:24:52;51.92;40.36;71.18;;
58303;Laerm;44109;52.398;7.024;2024-01-30T13:27:20;54.66;40.89;78.95;;
58303;Laerm;44109;52.398;7.024;2024-01-30T13:29:48;50.62;41.16;59.66;;
58303;Laerm;44109;52.398;7.024;2024-01-30T13:32:15;50.85;40.99;64.04;;
58303;Laerm;44109;52.398;7.024;2024-01-30T13:34:43;50.68;42.25;61.32;;
58303;Laerm;44109;52.398;7.024;2024-01-30T13:37:11;49.72;41.20;61.46;;
58303;Laerm;44109;52.398;7.024;2024-01-30T13:39:38;50.33;41.91;63.17;;
58303;Laerm;44109;52.398;7.024;2024-01-30T13:42:07;50.06;40.64;61.26;;
58303;Laerm;44109;52.398;7.024;2024-01-30T13:44:35;51.08;42.14;67.02;;
58303;Laerm;44109;52.398;7.024;2024-01-30T13:47:03;50.07;39.35;58.85;;
58303;Laerm;44109;52.398;7.024;2024-01-30T13:49:31;50.02;40.79;66.56;;